sensor_id;sensor_type;location;lat;lon;timestamp;P1;durP1;ratioP1;P2;durP2;ratioP2
27333;SDS011;14817;57.104;-2.094;2022-10-31T00:00:57;2.72;;;1.15;;
27333;SDS011;14817;57.104;-2.094;2022-10-31T00:03:25;6.68;;;1.60;;
27333;SDS011;14817;57.104;-2.094;2022-10-31T00:05:52;4.13;;;1.30;;
27333;SDS011;14817;57.104;-2.094;2022-10-31T00:08:19;4.32;;;1.40;;
27333;SDS011;14817;57.104;-2.094;2022-10-31T00:10:46;4.63;;;1.55;;
27333;SDS011;14817;57.104;-2.094;2022-10-31T00:13:13;2.78;;;1.42;;
27333;SDS011;14817;57.104;-2.094;2022-10-31T00:15:40;10.38;;;1.65;;
27333;SDS011;14817;57.104;-2.094;2022-10-31T00:18:08;3.17;;;1.02;;
27333;SDS011;14817;57.104;-2.094;2022-10-31T00:20:36;5.35;;;1.45;;
27333;SDS011;14817;57.104;-2.094;2022-10-31T00:23:04;3.90;;;1.50;;
27333;SDS011;14817;57.104;-2.094;2022-10-31T00:25:33;4.78;;;1.48;;
27333;SDS011;14817;57.104;-2.094;2022-10-31T00:28:03;4.80;;;1.73;;
27333;SDS011;14817;57.104;-2.094;2022-10-31T00:30:30;4.32;;;1.45;;
27333;SDS011;14817;57.104;-2.094;2022-10-31T00:32:57;4.03;;;1.60;;
27333;SDS011;14817;57.104;-2.094;2022-10-31T00:35:25;3.78;;;1.52;;
27333;SDS011;14817;57.104;-2.094;2022-10-31T00:37:51;3.60;;;2.08;;
27333;SDS011;14817;57.104;-2.094;2022-10-31T00:40:19;3.90;;;1.30;;
27333;SDS011;14817;57.104;-2.094;2022-10-31T00:42:45;5.05;;;1.70;;
27333;SDS011;14817;57.104;-2.094;2022-10-31T00:45:12;6.45;;;2.17;;
27333;SDS011;14817;57.104;-2.094;2022-10-31T00:47:39;5.22;;;1.77;;
27333;SDS011;14817;57.104;-2.094;2022-10-31T00:50:06;7.97;;;1.77;;
27333;SDS011;14817;57.104;-2.094;2022-10-31T00:55:09;5.80;;;1.30;;
27333;SDS011;14817;57.104;-2.094;2022-10-31T00:57:36;4.60;;;1.63;;
27333;SDS011;14817;57.104;-2.094;2022-10-31T01:00:04;3.83;;;1.50;;
27333;SDS011;14817;57.104;-2.094;2022-10-31T01:02:31;4.45;;;1.30;;
27333;SDS011;14817;57.104;-2.094;2022-10-31T01:04:59;5.82;;;1.40;;
27333;SDS011;14817;57.104;-2.094;2022-10-31T01:07:26;8.05;;;1.52;;
27333;SDS011;14817;57.104;-2.094;2022-10-31T01:09:52;5.93;;;1.30;;
27333;SDS011;14817;57.104;-2.094;2022-10-31T01:12:20;3.17;;;1.48;;
27333;SDS011;14817;57.104;-2.094;2022-10-31T01:14:47;7.78;;;1.42;;
27333;SDS011;14817;57.104;-2.094;2022-10-31T01:17:17;8.13;;;1.92;;
27333;SDS011;14817;57.104;-2.094;2022-10-31T01:19:45;3.72;;;1.10;;
27333;SDS011;14817;57.104;-2.094;2022-10-31T01:24:57;5.55;;;1.15;;
27333;SDS011;14817;57.104;-2.094;2022-10-31T01:27:24;7.30;;;1.52;;
27333;SDS011;14817;57.104;-2.094;2022-10-31T01:29:51;4.47;;;1.10;;
27333;SDS011;14817;57.104;-2.094;2022-10-31T01:32:18;6.70;;;1.30;;
27333;SDS011;14817;57.104;-2.094;2022-10-31T01:34:44;7.57;;;1.45;;
27333;SDS011;14817;57.104;-2.094;2022-10-31T01:37:12;4.65;;;1.00;;
27333;SDS011;14817;57.104;-2.094;2022-10-31T01:39:39;5.05;;;1.42;;
27333;SDS011;14817;57.104;-2.094;2022-10-31T01:42:06;4.97;;;1.23;;
27333;SDS011;14817;57.104;-2.094;2022-10-31T01:47:07;4.13;;;1.25;;
27333;SDS011;14817;57.104;-2.094;2022-10-31T01:49:45;5.32;;;1.00;;
27333;SDS011;14817;57.104;-2.094;2022-10-31T01:52:16;6.18;;;1.20;;
27333;SDS011;14817;57.104;-2.094;2022-10-31T01:55:00;3.05;;;1.08;;
27333;SDS011;14817;57.104;-2.094;2022-10-31T01:57:31;3.72;;;2.22;;
27333;SDS011;14817;57.104;-2.094;2022-10-31T02:00:04;7.68;;;1.63;;
27333;SDS011;14817;57.104;-2.094;2022-10-31T02:02:43;7.70;;;1.38;;
27333;SDS011;14817;57.104;-2.094;2022-10-31T02:05:12;5.63;;;1.40;;
27333;SDS011;14817;57.104;-2.094;2022-10-31T02:07:48;5.05;;;1.30;;
27333;SDS011;14817;57.104;-2.094;2022-10-31T02:10:17;7.22;;;1.88;;
27333;SDS011;14817;57.104;-2.094;2022-10-31T02:12:47;7.63;;;1.30;;
27333;SDS011;14817;57.104;-2.094;2022-10-31T02:15:16;9.35;;;1.35;;
27333;SDS011;14817;57.104;-2.094;2022-10-31T02:17:43;7.68;;;1.42;;
27333;SDS011;14817;57.104;-2.094;2022-10-31T02:31:20;7.50;;;1.65;;
27333;SDS011;14817;57.104;-2.094;2022-10-31T02:34:19;8.00;;;1.58;;
27333;SDS011;14817;57.104;-2.094;2022-10-31T02:36:57;4.32;;;1.33;;
27333;SDS011;14817;57.104;-2.094;2022-10-31T02:40:17;7.25;;;1.13;;
27333;SDS011;14817;57.104;-2.094;2022-10-31T02:43:01;6.80;;;1.13;;
27333;SDS011;14817;57.104;-2.094;2022-10-31T02:45:42;5.18;;;1.13;;
27333;SDS011;14817;57.104;-2.094;2022-10-31T02:48:18;6.95;;;1.10;;
27333;SDS011;14817;57.104;-2.094;2022-10-31T02:50:51;4.40;;;1.15;;
27333;SDS011;14817;57.104;-2.094;2022-10-31T02:53:22;7.07;;;1.40;;
27333;SDS011;14817;57.104;-2.094;2022-10-31T02:55:50;9.63;;;1.98;;
27333;SDS011;14817;57.104;-2.094;2022-10-31T02:58:23;7.30;;;1.85;;
27333;SDS011;14817;57.104;-2.094;2022-10-31T03:01:03;10.07;;;1.83;;
27333;SDS011;14817;57.104;-2.094;2022-10-31T03:04:01;5.32;;;0.90;;
27333;SDS011;14817;57.104;-2.094;2022-10-31T03:06:45;7.88;;;1.40;;
27333;SDS011;14817;57.104;-2.094;2022-10-31T03:09:34;7.45;;;1.50;;
27333;SDS011;14817;57.104;-2.094;2022-10-31T03:12:08;6.90;;;1.38;;
27333;SDS011;14817;57.104;-2.094;2022-10-31T03:14:45;5.30;;;1.00;;
27333;SDS011;14817;57.104;-2.094;2022-10-31T03:17:28;6.15;;;1.15;;
27333;SDS011;14817;57.104;-2.094;2022-10-31T03:20:03;10.05;;;1.50;;
27333;SDS011;14817;57.104;-2.094;2022-10-31T03:22:33;6.65;;;1.67;;
27333;SDS011;14817;57.104;-2.094;2022-10-31T03:25:01;11.38;;;1.67;;
27333;SDS011;14817;57.104;-2.094;2022-10-31T03:27:32;8.38;;;1.60;;
27333;SDS011;14817;57.104;-2.094;2022-10-31T03:30:03;10.85;;;2.38;;
27333;SDS011;14817;57.104;-2.094;2022-10-31T03:32:44;4.85;;;1.58;;
27333;SDS011;14817;57.104;-2.094;2022-10-31T03:35:15;12.15;;;1.25;;
27333;SDS011;14817;57.104;-2.094;2022-10-31T03:37:46;7.38;;;1.95;;
27333;SDS011;14817;57.104;-2.094;2022-10-31T03:40:15;9.60;;;1.33;;
27333;SDS011;14817;57.104;-2.094;2022-10-31T03:42:46;5.93;;;1.55;;
27333;SDS011;14817;57.104;-2.094;2022-10-31T03:45:22;11.00;;;1.40;;
27333;SDS011;14817;57.104;-2.094;2022-10-31T03:47:52;11.18;;;1.48;;
27333;SDS011;14817;57.104;-2.094;2022-10-31T03:50:20;7.57;;;1.17;;
27333;SDS011;14817;57.104;-2.094;2022-10-31T03:53:13;5.85;;;1.40;;
27333;SDS011;14817;57.104;-2.094;2022-10-31T03:58:12;7.13;;;2.05;;
27333;SDS011;14817;57.104;-2.094;2022-10-31T04:00:47;10.00;;;1.55;;
27333;SDS011;14817;57.104;-2.094;2022-10-31T04:03:19;10.25;;;1.48;;
27333;SDS011;14817;57.104;-2.094;2022-10-31T04:05:50;11.80;;;2.22;;
27333;SDS011;14817;57.104;-2.094;2022-10-31T04:08:21;10.63;;;1.90;;
27333;SDS011;14817;57.104;-2.094;2022-10-31T04:10:53;6.82;;;1.48;;
27333;SDS011;14817;57.104;-2.094;2022-10-31T04:13:26;10.40;;;2.50;;
27333;SDS011;14817;57.104;-2.094;2022-10-31T04:16:04;10.20;;;1.63;;
27333;SDS011;14817;57.104;-2.094;2022-10-31T04:18:32;13.68;;;2.60;;
27333;SDS011;14817;57.104;-2.094;2022-10-31T04:21:00;10.38;;;2.00;;
27333;SDS011;14817;57.104;-2.094;2022-10-31T04:23:29;7.97;;;1.52;;
27333;SDS011;14817;57.104;-2.094;2022-10-31T04:25:58;10.15;;;2.28;;
27333;SDS011;14817;57.104;-2.094;2022-10-31T04:28:25;10.88;;;2.05;;
27333;SDS011;14817;57.104;-2.094;2022-10-31T04:30:54;13.23;;;2.65;;
27333;SDS011;14817;57.104;-2.094;2022-10-31T04:33:21;8.73;;;1.70;;
27333;SDS011;14817;57.104;-2.094;2022-10-31T04:35:48;12.73;;;2.28;;
27333;SDS011;14817;57.104;-2.094;2022-10-31T04:38:15;10.13;;;2.10;;
27333;SDS011;14817;57.104;-2.094;2022-10-31T04:40:42;14.65;;;2.78;;
27333;SDS011;14817;57.104;-2.094;2022-10-31T04:43:35;13.20;;;1.60;;
27333;SDS011;14817;57.104;-2.094;2022-10-31T04:46:02;18.73;;;3.40;;
27333;SDS011;14817;57.104;-2.094;2022-10-31T04:48:29;17.23;;;2.22;;
27333;SDS011;14817;57.104;-2.094;2022-10-31T04:50:59;20.27;;;2.63;;
27333;SDS011;14817;57.104;-2.094;2022-10-31T04:53:27;15.70;;;2.63;;
27333;SDS011;14817;57.104;-2.094;2022-10-31T04:56:13;11.15;;;2.00;;
27333;SDS011;14817;57.104;-2.094;2022-10-31T04:58:43;13.82;;;1.92;;
27333;SDS011;14817;57.104;-2.094;2022-10-31T05:01:11;10.07;;;2.47;;
27333;SDS011;14817;57.104;-2.094;2022-10-31T05:03:38;16.23;;;2.40;;
27333;SDS011;14817;57.104;-2.094;2022-10-31T05:06:06;12.70;;;2.38;;
27333;SDS011;14817;57.104;-2.094;2022-10-31T05:08:34;11.05;;;1.90;;
27333;SDS011;14817;57.104;-2.094;2022-10-31T05:11:03;17.40;;;3.65;;
27333;SDS011;14817;57.104;-2.094;2022-10-31T05:13:31;15.95;;;2.00;;
27333;SDS011;14817;57.104;-2.094;2022-10-31T05:16:10;11.68;;;2.33;;
27333;SDS011;14817;57.104;-2.094;2022-10-31T05:18:55;19.40;;;3.45;;
27333;SDS011;14817;57.104;-2.094;2022-10-31T05:21:41;19.52;;;3.05;;
27333;SDS011;14817;57.104;-2.094;2022-10-31T05:24:09;18.80;;;2.65;;
27333;SDS011;14817;57.104;-2.094;2022-10-31T05:26:38;10.57;;;2.45;;
27333;SDS011;14817;57.104;-2.094;2022-10-31T05:29:05;17.70;;;2.88;;
27333;SDS011;14817;57.104;-2.094;2022-10-31T05:31:32;17.13;;;2.75;;
27333;SDS011;14817;57.104;-2.094;2022-10-31T05:33:59;12.05;;;2.45;;
27333;SDS011;14817;57.104;-2.094;2022-10-31T05:36:32;13.38;;;2.55;;
27333;SDS011;14817;57.104;-2.094;2022-10-31T05:39:02;16.63;;;2.75;;
27333;SDS011;14817;57.104;-2.094;2022-10-31T05:41:34;15.38;;;3.38;;
27333;SDS011;14817;57.104;-2.094;2022-10-31T05:44:08;15.80;;;2.78;;
27333;SDS011;14817;57.104;-2.094;2022-10-31T05:46:50;20.13;;;2.60;;
27333;SDS011;14817;57.104;-2.094;2022-10-31T05:49:35;15.77;;;3.17;;
27333;SDS011;14817;57.104;-2.094;2022-10-31T05:52:20;15.43;;;2.78;;
27333;SDS011;14817;57.104;-2.094;2022-10-31T05:54:55;13.82;;;2.67;;
27333;SDS011;14817;57.104;-2.094;2022-10-31T05:57:22;24.80;;;3.53;;
27333;SDS011;14817;57.104;-2.094;2022-10-31T05:59:49;13.70;;;2.30;;
27333;SDS011;14817;57.104;-2.094;2022-10-31T06:02:22;22.83;;;6.75;;
27333;SDS011;14817;57.104;-2.094;2022-10-31T06:05:20;14.48;;;3.88;;
27333;SDS011;14817;57.104;-2.094;2022-10-31T06:07:47;21.30;;;3.22;;
27333;SDS011;14817;57.104;-2.094;2022-10-31T06:10:14;17.67;;;3.10;;
27333;SDS011;14817;57.104;-2.094;2022-10-31T06:12:44;17.58;;;3.38;;
27333;SDS011;14817;57.104;-2.094;2022-10-31T06:15:19;27.42;;;8.18;;
27333;SDS011;14817;57.104;-2.094;2022-10-31T06:18:00;20.60;;;3.88;;
27333;SDS011;14817;57.104;-2.094;2022-10-31T06:20:32;18.70;;;3.58;;
27333;SDS011;14817;57.104;-2.094;2022-10-31T06:23:02;20.35;;;3.30;;
27333;SDS011;14817;57.104;-2.094;2022-10-31T06:25:31;36.58;;;5.22;;
27333;SDS011;14817;57.104;-2.094;2022-10-31T06:27:59;16.88;;;2.95;;
27333;SDS011;14817;57.104;-2.094;2022-10-31T06:30:39;23.10;;;3.30;;
27333;SDS011;14817;57.104;-2.094;2022-10-31T06:33:06;18.38;;;4.03;;
27333;SDS011;14817;57.104;-2.094;2022-10-31T06:35:37;25.55;;;3.85;;
27333;SDS011;14817;57.104;-2.094;2022-10-31T06:38:04;35.80;;;4.53;;
27333;SDS011;14817;57.104;-2.094;2022-10-31T06:40:36;26.15;;;4.25;;
27333;SDS011;14817;57.104;-2.094;2022-10-31T06:43:23;27.92;;;3.75;;
27333;SDS011;14817;57.104;-2.094;2022-10-31T06:46:02;25.83;;;4.55;;
27333;SDS011;14817;57.104;-2.094;2022-10-31T06:48:37;21.88;;;3.83;;
27333;SDS011;14817;57.104;-2.094;2022-10-31T06:51:15;22.90;;;4.05;;
27333;SDS011;14817;57.104;-2.094;2022-10-31T06:53:42;19.63;;;4.10;;
27333;SDS011;14817;57.104;-2.094;2022-10-31T06:56:11;27.95;;;5.93;;
27333;SDS011;14817;57.104;-2.094;2022-10-31T06:58:44;30.13;;;4.93;;
27333;SDS011;14817;57.104;-2.094;2022-10-31T07:01:12;28.98;;;4.05;;
27333;SDS011;14817;57.104;-2.094;2022-10-31T07:03:39;23.33;;;4.10;;
27333;SDS011;14817;57.104;-2.094;2022-10-31T07:06:06;18.50;;;3.80;;
27333;SDS011;14817;57.104;-2.094;2022-10-31T07:08:33;25.10;;;4.15;;
27333;SDS011;14817;57.104;-2.094;2022-10-31T07:11:00;24.27;;;4.30;;
27333;SDS011;14817;57.104;-2.094;2022-10-31T07:13:28;25.67;;;4.72;;
27333;SDS011;14817;57.104;-2.094;2022-10-31T07:16:06;28.58;;;4.72;;
27333;SDS011;14817;57.104;-2.094;2022-10-31T07:18:35;24.90;;;3.83;;
27333;SDS011;14817;57.104;-2.094;2022-10-31T07:21:01;30.00;;;8.75;;
27333;SDS011;14817;57.104;-2.094;2022-10-31T07:23:29;36.15;;;6.05;;
27333;SDS011;14817;57.104;-2.094;2022-10-31T07:26:15;19.27;;;4.15;;
27333;SDS011;14817;57.104;-2.094;2022-10-31T07:28:45;24.02;;;5.30;;
27333;SDS011;14817;57.104;-2.094;2022-10-31T07:31:15;25.77;;;5.17;;
27333;SDS011;14817;57.104;-2.094;2022-10-31T07:33:42;20.48;;;3.63;;
27333;SDS011;14817;57.104;-2.094;2022-10-31T07:36:24;17.00;;;4.20;;
27333;SDS011;14817;57.104;-2.094;2022-10-31T07:38:53;17.73;;;4.18;;
27333;SDS011;14817;57.104;-2.094;2022-10-31T07:41:20;21.02;;;4.22;;
27333;SDS011;14817;57.104;-2.094;2022-10-31T07:43:47;22.67;;;7.93;;
27333;SDS011;14817;57.104;-2.094;2022-10-31T07:46:14;21.00;;;5.65;;
27333;SDS011;14817;57.104;-2.094;2022-10-31T07:49:19;26.33;;;4.53;;
27333;SDS011;14817;57.104;-2.094;2022-10-31T07:52:04;21.35;;;4.20;;
27333;SDS011;14817;57.104;-2.094;2022-10-31T07:54:51;21.40;;;4.72;;
27333;SDS011;14817;57.104;-2.094;2022-10-31T07:57:23;24.13;;;3.83;;
27333;SDS011;14817;57.104;-2.094;2022-10-31T07:59:51;17.02;;;4.13;;
27333;SDS011;14817;57.104;-2.094;2022-10-31T08:02:18;19.63;;;3.40;;
27333;SDS011;14817;57.104;-2.094;2022-10-31T08:04:47;20.73;;;3.67;;
27333;SDS011;14817;57.104;-2.094;2022-10-31T08:07:54;20.15;;;3.80;;
27333;SDS011;14817;57.104;-2.094;2022-10-31T08:10:21;18.63;;;4.50;;
27333;SDS011;14817;57.104;-2.094;2022-10-31T08:12:55;13.88;;;3.47;;
27333;SDS011;14817;57.104;-2.094;2022-10-31T08:15:39;22.80;;;4.32;;
27333;SDS011;14817;57.104;-2.094;2022-10-31T08:18:12;22.42;;;4.80;;
27333;SDS011;14817;57.104;-2.094;2022-10-31T08:20:41;23.80;;;4.68;;
27333;SDS011;14817;57.104;-2.094;2022-10-31T08:23:09;21.33;;;4.07;;
27333;SDS011;14817;57.104;-2.094;2022-10-31T08:25:37;18.25;;;4.05;;
27333;SDS011;14817;57.104;-2.094;2022-10-31T08:28:05;18.90;;;3.78;;
27333;SDS011;14817;57.104;-2.094;2022-10-31T08:30:33;23.20;;;4.18;;
27333;SDS011;14817;57.104;-2.094;2022-10-31T08:33:20;21.83;;;3.97;;
27333;SDS011;14817;57.104;-2.094;2022-10-31T08:36:26;23.38;;;4.60;;
27333;SDS011;14817;57.104;-2.094;2022-10-31T08:38:53;25.83;;;5.85;;
27333;SDS011;14817;57.104;-2.094;2022-10-31T08:41:28;23.45;;;4.20;;
27333;SDS011;14817;57.104;-2.094;2022-10-31T08:43:55;22.77;;;4.53;;
27333;SDS011;14817;57.104;-2.094;2022-10-31T08:46:21;21.75;;;5.18;;
27333;SDS011;14817;57.104;-2.094;2022-10-31T08:48:48;26.50;;;5.03;;
27333;SDS011;14817;57.104;-2.094;2022-10-31T08:51:16;22.40;;;4.63;;
27333;SDS011;14817;57.104;-2.094;2022-10-31T08:53:43;23.77;;;4.43;;
27333;SDS011;14817;57.104;-2.094;2022-10-31T08:56:30;16.52;;;4.30;;
27333;SDS011;14817;57.104;-2.094;2022-10-31T08:58:58;26.88;;;5.78;;
27333;SDS011;14817;57.104;-2.094;2022-10-31T09:01:54;23.63;;;5.60;;
27333;SDS011;14817;57.104;-2.094;2022-10-31T09:04:21;27.35;;;5.30;;
27333;SDS011;14817;57.104;-2.094;2022-10-31T09:06:48;24.88;;;4.88;;
27333;SDS011;14817;57.104;-2.094;2022-10-31T09:09:36;31.55;;;5.78;;
27333;SDS011;14817;57.104;-2.094;2022-10-31T09:12:03;26.27;;;5.03;;
27333;SDS011;14817;57.104;-2.094;2022-10-31T09:14:48;26.73;;;4.53;;
27333;SDS011;14817;57.104;-2.094;2022-10-31T09:17:22;23.58;;;4.78;;
27333;SDS011;14817;57.104;-2.094;2022-10-31T09:20:10;19.85;;;4.68;;
27333;SDS011;14817;57.104;-2.094;2022-10-31T09:22:38;18.73;;;4.43;;
27333;SDS011;14817;57.104;-2.094;2022-10-31T09:25:05;21.98;;;5.18;;
27333;SDS011;14817;57.104;-2.094;2022-10-31T09:27:32;17.20;;;3.78;;
27333;SDS011;14817;57.104;-2.094;2022-10-31T09:29:59;25.08;;;4.53;;
27333;SDS011;14817;57.104;-2.094;2022-10-31T09:32:26;14.00;;;3.90;;
27333;SDS011;14817;57.104;-2.094;2022-10-31T09:34:53;20.27;;;3.58;;
27333;SDS011;14817;57.104;-2.094;2022-10-31T09:37:19;17.20;;;3.45;;
27333;SDS011;14817;57.104;-2.094;2022-10-31T09:39:46;16.25;;;4.20;;
27333;SDS011;14817;57.104;-2.094;2022-10-31T09:45:26;12.65;;;3.78;;
27333;SDS011;14817;57.104;-2.094;2022-10-31T09:48:07;22.08;;;4.70;;
27333;SDS011;14817;57.104;-2.094;2022-10-31T09:51:03;21.75;;;3.72;;
27333;SDS011;14817;57.104;-2.094;2022-10-31T09:54:01;21.98;;;3.78;;
27333;SDS011;14817;57.104;-2.094;2022-10-31T09:56:30;18.33;;;4.35;;
27333;SDS011;14817;57.104;-2.094;2022-10-31T09:58:59;21.08;;;4.63;;
27333;SDS011;14817;57.104;-2.094;2022-10-31T10:01:33;17.85;;;4.10;;
27333;SDS011;14817;57.104;-2.094;2022-10-31T10:07:00;16.00;;;3.58;;
27333;SDS011;14817;57.104;-2.094;2022-10-31T10:09:50;24.52;;;5.18;;
27333;SDS011;14817;57.104;-2.094;2022-10-31T10:12:41;15.95;;;4.18;;
27333;SDS011;14817;57.104;-2.094;2022-10-31T10:29:47;18.30;;;3.80;;
27333;SDS011;14817;57.104;-2.094;2022-10-31T10:32:28;17.23;;;3.92;;
27333;SDS011;14817;57.104;-2.094;2022-10-31T10:37:42;19.30;;;4.22;;
27333;SDS011;14817;57.104;-2.094;2022-10-31T10:40:16;16.02;;;3.50;;
27333;SDS011;14817;57.104;-2.094;2022-10-31T10:42:45;24.25;;;4.85;;
27333;SDS011;14817;57.104;-2.094;2022-10-31T10:45:41;17.50;;;3.90;;
27333;SDS011;14817;57.104;-2.094;2022-10-31T10:48:49;22.13;;;5.10;;
27333;SDS011;14817;57.104;-2.094;2022-10-31T10:54:39;22.02;;;4.35;;
27333;SDS011;14817;57.104;-2.094;2022-10-31T10:59:38;25.05;;;4.80;;
27333;SDS011;14817;57.104;-2.094;2022-10-31T11:02:13;19.15;;;4.22;;
27333;SDS011;14817;57.104;-2.094;2022-10-31T11:05:00;23.30;;;4.18;;
27333;SDS011;14817;57.104;-2.094;2022-10-31T11:07:38;21.75;;;5.32;;
27333;SDS011;14817;57.104;-2.094;2022-10-31T11:10:06;19.85;;;3.92;;
27333;SDS011;14817;57.104;-2.094;2022-10-31T11:12:40;18.13;;;4.55;;
27333;SDS011;14817;57.104;-2.094;2022-10-31T11:15:17;21.05;;;5.45;;
27333;SDS011;14817;57.104;-2.094;2022-10-31T11:17:48;22.42;;;4.82;;
27333;SDS011;14817;57.104;-2.094;2022-10-31T11:22:46;18.83;;;3.80;;
27333;SDS011;14817;57.104;-2.094;2022-10-31T11:25:24;23.40;;;4.75;;
27333;SDS011;14817;57.104;-2.094;2022-10-31T11:28:02;21.77;;;4.20;;
27333;SDS011;14817;57.104;-2.094;2022-10-31T11:30:35;23.05;;;4.35;;
27333;SDS011;14817;57.104;-2.094;2022-10-31T11:33:20;22.15;;;4.88;;
27333;SDS011;14817;57.104;-2.094;2022-10-31T11:35:51;26.02;;;4.82;;
27333;SDS011;14817;57.104;-2.094;2022-10-31T11:38:24;22.20;;;4.95;;
27333;SDS011;14817;57.104;-2.094;2022-10-31T11:41:14;22.75;;;4.85;;
27333;SDS011;14817;57.104;-2.094;2022-10-31T11:46:34;24.55;;;4.35;;
27333;SDS011;14817;57.104;-2.094;2022-10-31T11:49:05;22.92;;;4.45;;
27333;SDS011;14817;57.104;-2.094;2022-10-31T11:51:41;24.77;;;4.55;;
27333;SDS011;14817;57.104;-2.094;2022-10-31T11:54:25;13.25;;;4.20;;
27333;SDS011;14817;57.104;-2.094;2022-10-31T11:56:52;16.35;;;3.90;;
27333;SDS011;14817;57.104;-2.094;2022-10-31T11:59:24;19.00;;;3.85;;
27333;SDS011;14817;57.104;-2.094;2022-10-31T12:01:52;21.20;;;4.55;;
27333;SDS011;14817;57.104;-2.094;2022-10-31T12:04:23;16.15;;;4.28;;
27333;SDS011;14817;57.104;-2.094;2022-10-31T12:06:54;26.38;;;5.35;;
27333;SDS011;14817;57.104;-2.094;2022-10-31T12:12:16;28.77;;;5.00;;
27333;SDS011;14817;57.104;-2.094;2022-10-31T12:17:22;23.38;;;4.60;;
27333;SDS011;14817;57.104;-2.094;2022-10-31T12:20:00;25.98;;;6.07;;
27333;SDS011;14817;57.104;-2.094;2022-10-31T12:28:09;27.33;;;5.85;;
27333;SDS011;14817;57.104;-2.094;2022-10-31T12:34:00;28.15;;;5.03;;
27333;SDS011;14817;57.104;-2.094;2022-10-31T12:36:33;27.50;;;4.82;;
27333;SDS011;14817;57.104;-2.094;2022-10-31T12:59:01;25.00;;;6.35;;
27333;SDS011;14817;57.104;-2.094;2022-10-31T13:01:51;23.52;;;4.68;;
27333;SDS011;14817;57.104;-2.094;2022-10-31T13:04:40;30.88;;;6.32;;
27333;SDS011;14817;57.104;-2.094;2022-10-31T13:07:23;25.80;;;6.88;;
27333;SDS011;14817;57.104;-2.094;2022-10-31T13:12:27;25.67;;;5.70;;
27333;SDS011;14817;57.104;-2.094;2022-10-31T13:17:49;27.70;;;5.45;;
27333;SDS011;14817;57.104;-2.094;2022-10-31T13:20:29;28.27;;;6.25;;
27333;SDS011;14817;57.104;-2.094;2022-10-31T13:23:08;28.30;;;5.75;;
27333;SDS011;14817;57.104;-2.094;2022-10-31T13:26:09;21.92;;;6.03;;
27333;SDS011;14817;57.104;-2.094;2022-10-31T13:29:03;24.07;;;5.93;;
27333;SDS011;14817;57.104;-2.094;2022-10-31T13:31:38;25.58;;;5.22;;
27333;SDS011;14817;57.104;-2.094;2022-10-31T13:34:09;26.65;;;5.40;;
27333;SDS011;14817;57.104;-2.094;2022-10-31T13:36:55;25.45;;;5.57;;
27333;SDS011;14817;57.104;-2.094;2022-10-31T13:45:12;36.35;;;7.22;;
27333;SDS011;14817;57.104;-2.094;2022-10-31T13:47:41;30.67;;;5.75;;
27333;SDS011;14817;57.104;-2.094;2022-10-31T13:52:44;27.00;;;6.25;;
27333;SDS011;14817;57.104;-2.094;2022-10-31T13:58:03;31.77;;;6.82;;
27333;SDS011;14817;57.104;-2.094;2022-10-31T14:06:21;36.05;;;8.10;;
27333;SDS011;14817;57.104;-2.094;2022-10-31T14:08:50;36.95;;;8.07;;
27333;SDS011;14817;57.104;-2.094;2022-10-31T14:11:22;26.35;;;7.15;;
27333;SDS011;14817;57.104;-2.094;2022-10-31T14:14:01;22.25;;;5.60;;
27333;SDS011;14817;57.104;-2.094;2022-10-31T14:16:29;33.88;;;7.22;;
27333;SDS011;14817;57.104;-2.094;2022-10-31T14:19:04;29.70;;;7.05;;
27333;SDS011;14817;57.104;-2.094;2022-10-31T14:21:38;38.67;;;8.43;;
27333;SDS011;14817;57.104;-2.094;2022-10-31T14:24:15;30.17;;;6.95;;
27333;SDS011;14817;57.104;-2.094;2022-10-31T14:29:45;32.42;;;7.80;;
27333;SDS011;14817;57.104;-2.094;2022-10-31T14:32:22;40.30;;;8.55;;
27333;SDS011;14817;57.104;-2.094;2022-10-31T14:51:12;30.90;;;7.07;;
27333;SDS011;14817;57.104;-2.094;2022-10-31T14:53:49;38.90;;;9.18;;
27333;SDS011;14817;57.104;-2.094;2022-10-31T14:56:24;31.92;;;6.72;;
27333;SDS011;14817;57.104;-2.094;2022-10-31T14:58:53;31.48;;;6.47;;
27333;SDS011;14817;57.104;-2.094;2022-10-31T15:01:31;25.95;;;6.00;;
27333;SDS011;14817;57.104;-2.094;2022-10-31T15:10:04;35.30;;;8.13;;
27333;SDS011;14817;57.104;-2.094;2022-10-31T15:12:34;28.27;;;7.78;;
27333;SDS011;14817;57.104;-2.094;2022-10-31T15:15:14;27.40;;;6.72;;
27333;SDS011;14817;57.104;-2.094;2022-10-31T15:17:46;29.45;;;6.10;;
27333;SDS011;14817;57.104;-2.094;2022-10-31T15:22:44;30.20;;;7.10;;
27333;SDS011;14817;57.104;-2.094;2022-10-31T15:25:15;40.03;;;8.10;;
27333;SDS011;14817;57.104;-2.094;2022-10-31T15:27:45;35.65;;;7.40;;
27333;SDS011;14817;57.104;-2.094;2022-10-31T15:30:17;37.33;;;7.45;;
27333;SDS011;14817;57.104;-2.094;2022-10-31T15:32:51;29.05;;;5.97;;
27333;SDS011;14817;57.104;-2.094;2022-10-31T15:35:27;37.55;;;7.43;;
27333;SDS011;14817;57.104;-2.094;2022-10-31T15:37:58;31.27;;;7.32;;
27333;SDS011;14817;57.104;-2.094;2022-10-31T15:40:28;27.58;;;6.32;;
27333;SDS011;14817;57.104;-2.094;2022-10-31T15:42:59;32.80;;;7.57;;
27333;SDS011;14817;57.104;-2.094;2022-10-31T15:45:28;29.58;;;6.78;;
27333;SDS011;14817;57.104;-2.094;2022-10-31T15:47:57;30.98;;;7.30;;
27333;SDS011;14817;57.104;-2.094;2022-10-31T15:51:10;30.67;;;6.55;;
27333;SDS011;14817;57.104;-2.094;2022-10-31T15:53:35;32.08;;;6.88;;
27333;SDS011;14817;57.104;-2.094;2022-10-31T15:56:10;32.53;;;6.43;;
27333;SDS011;14817;57.104;-2.094;2022-10-31T15:58:44;23.92;;;5.88;;
27333;SDS011;14817;57.104;-2.094;2022-10-31T16:01:23;30.92;;;9.07;;
27333;SDS011;14817;57.104;-2.094;2022-10-31T16:06:45;42.47;;;7.53;;
27333;SDS011;14817;57.104;-2.094;2022-10-31T16:09:24;28.25;;;6.45;;
27333;SDS011;14817;57.104;-2.094;2022-10-31T16:11:51;30.23;;;6.45;;
27333;SDS011;14817;57.104;-2.094;2022-10-31T16:14:19;29.38;;;6.70;;
27333;SDS011;14817;57.104;-2.094;2022-10-31T16:16:55;31.35;;;7.03;;
27333;SDS011;14817;57.104;-2.094;2022-10-31T16:19:25;33.97;;;6.47;;
27333;SDS011;14817;57.104;-2.094;2022-10-31T16:22:02;49.85;;;18.80;;
27333;SDS011;14817;57.104;-2.094;2022-10-31T16:27:21;30.98;;;7.97;;
27333;SDS011;14817;57.104;-2.094;2022-10-31T16:29:52;30.33;;;9.13;;
27333;SDS011;14817;57.104;-2.094;2022-10-31T16:32:33;33.10;;;7.82;;
27333;SDS011;14817;57.104;-2.094;2022-10-31T16:35:21;30.15;;;6.72;;
27333;SDS011;14817;57.104;-2.094;2022-10-31T16:37:49;29.92;;;6.20;;
27333;SDS011;14817;57.104;-2.094;2022-10-31T16:40:16;33.33;;;7.32;;
27333;SDS011;14817;57.104;-2.094;2022-10-31T16:42:44;25.75;;;6.30;;
27333;SDS011;14817;57.104;-2.094;2022-10-31T16:45:19;33.22;;;7.20;;
27333;SDS011;14817;57.104;-2.094;2022-10-31T16:48:04;34.92;;;6.40;;
27333;SDS011;14817;57.104;-2.094;2022-10-31T16:50:32;43.83;;;7.05;;
27333;SDS011;14817;57.104;-2.094;2022-10-31T16:52:59;34.22;;;9.30;;
27333;SDS011;14817;57.104;-2.094;2022-10-31T16:55:42;39.05;;;7.05;;
27333;SDS011;14817;57.104;-2.094;2022-10-31T16:58:16;23.30;;;5.07;;
27333;SDS011;14817;57.104;-2.094;2022-10-31T17:00:47;34.95;;;7.90;;
27333;SDS011;14817;57.104;-2.094;2022-10-31T17:03:14;34.40;;;7.78;;
27333;SDS011;14817;57.104;-2.094;2022-10-31T17:05:41;36.83;;;7.18;;
27333;SDS011;14817;57.104;-2.094;2022-10-31T17:08:08;38.30;;;7.10;;
27333;SDS011;14817;57.104;-2.094;2022-10-31T17:10:34;40.42;;;7.05;;
27333;SDS011;14817;57.104;-2.094;2022-10-31T17:13:02;38.15;;;7.95;;
27333;SDS011;14817;57.104;-2.094;2022-10-31T17:15:34;28.85;;;6.32;;
27333;SDS011;14817;57.104;-2.094;2022-10-31T17:18:09;33.33;;;6.30;;
27333;SDS011;14817;57.104;-2.094;2022-10-31T17:20:38;34.95;;;6.43;;
27333;SDS011;14817;57.104;-2.094;2022-10-31T17:23:05;29.90;;;7.22;;
27333;SDS011;14817;57.104;-2.094;2022-10-31T17:25:31;24.33;;;6.03;;